createdAt,value
2018-10-16T00:00:41.028Z,65.60
2018-10-16T00:03:08.546Z,65.30
2018-10-16T00:05:36.079Z,65.20
2018-10-16T00:08:03.599Z,65.40
2018-10-16T00:10:36.906Z,65.50
2018-10-16T00:13:04.537Z,65.80
2018-10-16T00:15:32.086Z,66.00
2018-10-16T00:17:59.577Z,66.10
2018-10-16T00:20:27.063Z,66.10
2018-10-16T00:22:54.598Z,66.00
2018-10-16T00:25:22.055Z,66.10
2018-10-16T00:27:49.598Z,66.30
2018-10-16T00:30:17.135Z,66.50
2018-10-16T00:32:44.767Z,66.80
2018-10-16T00:35:12.170Z,66.60
2018-10-16T00:37:39.756Z,66.50
2018-10-16T00:40:08.402Z,66.50
2018-10-16T00:42:35.929Z,66.60
2018-10-16T00:45:03.926Z,66.60
2018-10-16T00:47:31.501Z,66.80
2018-10-16T00:49:58.972Z,66.90
2018-10-16T00:52:26.518Z,67.00
2018-10-16T00:54:54.112Z,67.70
2018-10-16T00:57:21.522Z,66.90
2018-10-16T00:59:49.112Z,67.00
2018-10-16T01:02:16.563Z,67.40
2018-10-16T01:09:38.974Z,66.30
2018-10-16T01:12:06.471Z,67.20
2018-10-16T01:14:34.027Z,67.50
2018-10-16T01:17:01.519Z,67.60
2018-10-16T01:19:29.120Z,67.70
2018-10-16T01:21:56.692Z,68.10
2018-10-16T01:24:24.281Z,67.60
2018-10-16T01:26:51.761Z,67.70
2018-10-16T01:29:19.227Z,67.60
2018-10-16T01:31:46.772Z,67.60
2018-10-16T01:34:14.305Z,67.50
2018-10-16T01:36:41.880Z,67.60
2018-10-16T01:39:09.373Z,67.70
2018-10-16T01:41:37.020Z,68.10
2018-10-16T01:44:04.473Z,68.50
2018-10-16T01:46:32.033Z,68.40
2018-10-16T01:48:59.510Z,68.60
2018-10-16T01:51:27.038Z,69.20
2018-10-16T01:53:54.525Z,69.00
2018-10-16T01:56:22.074Z,69.80
2018-10-16T01:58:49.530Z,69.10
2018-10-16T02:01:17.088Z,68.80
2018-10-16T02:03:44.610Z,68.80
2018-10-16T02:06:12.144Z,68.90
2018-10-16T02:08:39.713Z,68.70
2018-10-16T02:11:07.295Z,68.70
2018-10-16T02:13:34.874Z,68.90
2018-10-16T02:16:02.345Z,68.90
2018-10-16T02:18:29.878Z,68.90
2018-10-16T02:20:57.344Z,68.70
2018-10-16T02:23:24.890Z,68.80
2018-10-16T02:25:52.351Z,68.60
2018-10-16T02:28:19.916Z,68.60
2018-10-16T02:30:47.444Z,68.70
2018-10-16T02:33:14.949Z,68.60
2018-10-16T02:35:42.447Z,68.90
2018-10-16T02:38:09.993Z,69.10
2018-10-16T02:40:37.569Z,69.10
2018-10-16T02:43:05.509Z,69.60
2018-10-16T02:45:32.975Z,70.00
2018-10-16T02:48:00.880Z,70.00
2018-10-16T02:50:28.331Z,69.90
2018-10-16T02:52:55.830Z,69.70
2018-10-16T02:55:23.432Z,70.10
2018-10-16T02:57:50.998Z,69.90
2018-10-16T03:00:18.542Z,70.10
2018-10-16T03:02:46.036Z,70.20
2018-10-16T03:05:13.576Z,70.50
2018-10-16T03:07:41.040Z,70.50
2018-10-16T03:10:08.575Z,70.80
2018-10-16T03:12:36.170Z,71.20
2018-10-16T03:15:06.179Z,71.10
2018-10-16T03:17:33.739Z,71.10
2018-10-16T03:20:01.386Z,71.00
2018-10-16T03:22:28.849Z,70.90
2018-10-16T03:24:56.413Z,71.10
2018-10-16T03:27:23.869Z,71.00
2018-10-16T03:29:51.438Z,70.90
2018-10-16T03:32:18.886Z,70.70
2018-10-16T03:34:46.358Z,72.00
2018-10-16T03:37:13.902Z,71.00
2018-10-16T03:39:41.386Z,71.60
2018-10-16T03:44:36.394Z,71.50
2018-10-16T03:47:04.116Z,71.90
2018-10-16T03:49:31.613Z,71.50
2018-10-16T03:51:59.139Z,71.30
2018-10-16T03:54:26.593Z,71.00
2018-10-16T03:56:54.142Z,70.80
2018-10-16T03:59:21.602Z,70.90
2018-10-16T04:01:49.168Z,71.00
2018-10-16T04:04:16.642Z,70.90
2018-10-16T04:06:44.276Z,70.80
2018-10-16T04:09:11.760Z,70.90
2018-10-16T04:11:39.230Z,71.00
2018-10-16T04:14:06.907Z,71.80
2018-10-16T04:16:34.278Z,71.60
2018-10-16T04:19:01.983Z,71.80
2018-10-16T04:21:35.069Z,71.70
2018-10-16T04:24:02.617Z,71.60
2018-10-16T04:26:30.126Z,71.60
2018-10-16T04:28:57.658Z,71.40
2018-10-16T04:31:26.014Z,71.20
2018-10-16T04:33:53.565Z,71.30
2018-10-16T04:36:21.063Z,71.40
2018-10-16T04:38:48.625Z,71.50
2018-10-16T04:41:16.207Z,71.40
2018-10-16T04:43:43.749Z,71.30
2018-10-16T04:46:11.214Z,71.30
2018-10-16T04:48:38.758Z,71.40
2018-10-16T04:51:06.463Z,71.20
2018-10-16T04:53:33.948Z,71.10
2018-10-16T04:56:02.495Z,71.10
2018-10-16T04:58:29.957Z,71.10
2018-10-16T05:00:57.485Z,71.40
2018-10-16T05:03:24.980Z,71.60
2018-10-16T05:05:52.554Z,71.50
2018-10-16T05:08:20.021Z,71.60
2018-10-16T05:10:47.609Z,71.50
2018-10-16T05:13:15.143Z,71.60
2018-10-16T05:15:42.627Z,72.20
2018-10-16T05:18:10.118Z,73.00
2018-10-16T05:20:37.729Z,72.50
2018-10-16T05:23:05.215Z,72.40
2018-10-16T05:25:32.755Z,72.30
2018-10-16T05:28:00.232Z,72.10
2018-10-16T05:30:27.813Z,71.90
2018-10-16T05:32:55.309Z,72.00
2018-10-16T05:35:22.847Z,71.90
2018-10-16T05:37:50.397Z,71.80
2018-10-16T05:40:17.947Z,72.00
2018-10-16T05:42:45.515Z,72.10
2018-10-16T05:45:13.610Z,72.20
2018-10-16T05:47:42.825Z,72.30
2018-10-16T05:50:10.975Z,72.20
2018-10-16T05:52:38.553Z,72.40
2018-10-16T05:55:06.414Z,72.30
2018-10-16T05:57:34.202Z,72.20
2018-10-16T06:00:13.578Z,72.30
2018-10-16T06:02:41.152Z,72.40
2018-10-16T06:05:08.902Z,72.70
2018-10-16T06:07:36.429Z,72.60
2018-10-16T06:10:04.850Z,72.70
2018-10-16T06:12:32.318Z,72.70
2018-10-16T06:14:59.897Z,72.70
2018-10-16T06:17:27.394Z,73.10
2018-10-16T06:19:54.975Z,73.20
2018-10-16T06:22:22.446Z,73.30
2018-10-16T06:24:49.987Z,73.70
2018-10-16T06:27:17.469Z,73.70
2018-10-16T06:29:45.135Z,74.00
2018-10-16T06:32:12.618Z,74.60
2018-10-16T06:34:40.173Z,75.20
2018-10-16T06:37:07.682Z,75.30
2018-10-16T06:39:35.299Z,75.90
2018-10-16T06:42:02.875Z,76.10
2018-10-16T06:46:57.814Z,74.80
2018-10-16T06:49:25.404Z,75.30
2018-10-16T06:51:52.913Z,75.50
2018-10-16T06:54:20.488Z,75.80
2018-10-16T06:56:48.055Z,75.30
2018-10-16T06:59:15.547Z,74.70
2018-10-16T07:01:43.113Z,75.10
2018-10-16T07:04:10.566Z,75.40
2018-10-16T07:06:38.107Z,75.10
2018-10-16T07:09:06.742Z,75.10
2018-10-16T07:11:36.246Z,75.50
2018-10-16T07:14:04.565Z,75.80
2018-10-16T07:16:32.183Z,76.10
2018-10-16T07:18:59.653Z,76.10
2018-10-16T07:21:27.263Z,76.30
2018-10-16T07:23:54.757Z,76.30
2018-10-16T07:26:22.245Z,76.10
2018-10-16T07:28:49.711Z,76.50
2018-10-16T07:31:17.277Z,75.90
2018-10-16T07:33:44.768Z,76.40
2018-10-16T07:36:12.282Z,76.10
2018-10-16T07:38:39.850Z,76.30
2018-10-16T07:41:07.361Z,75.50
2018-10-16T07:43:34.962Z,75.60
2018-10-16T07:46:02.454Z,75.40
2018-10-16T07:50:57.374Z,75.10
2018-10-16T07:53:24.909Z,75.50
2018-10-16T07:55:52.405Z,75.40
2018-10-16T07:58:19.973Z,74.50
2018-10-16T08:00:47.531Z,75.70
2018-10-16T08:03:15.074Z,75.60
2018-10-16T08:05:42.527Z,75.90
2018-10-16T08:08:10.062Z,75.50
2018-10-16T08:13:05.075Z,74.00
2018-10-16T08:15:32.632Z,74.20
2018-10-16T08:18:00.121Z,74.70
2018-10-16T08:20:27.718Z,74.00
2018-10-16T08:22:55.217Z,72.80
2018-10-16T08:25:22.783Z,72.80
2018-10-16T08:27:50.226Z,72.50
2018-10-16T08:30:17.844Z,73.00
2018-10-16T08:32:45.325Z,71.80
2018-10-16T08:35:12.931Z,71.90
2018-10-16T08:39:51.633Z,71.40
2018-10-16T08:43:31.061Z,71.20
2018-10-16T08:47:07.655Z,69.70
2018-10-16T08:50:46.997Z,67.50
2018-10-16T08:53:14.551Z,65.70
2018-10-16T08:55:42.140Z,61.50
2018-10-16T08:58:09.626Z,59.80
2018-10-16T09:00:37.146Z,59.00
2018-10-16T09:03:04.934Z,59.30
2018-10-16T09:05:32.414Z,58.00
2018-10-16T09:07:59.970Z,57.40
2018-10-16T09:10:27.505Z,56.90
2018-10-16T09:12:55.122Z,55.60
2018-10-16T09:15:23.198Z,54.00
2018-10-16T09:17:50.779Z,54.50
2018-10-16T09:20:18.319Z,55.30
2018-10-16T09:22:45.860Z,53.40
2018-10-16T09:25:13.474Z,52.70
2018-10-16T09:27:40.949Z,52.40
2018-10-16T09:30:11.004Z,52.70
2018-10-16T09:32:38.982Z,53.50
2018-10-16T09:35:07.794Z,52.90
2018-10-16T09:37:35.645Z,54.40
2018-10-16T09:40:03.162Z,54.60
2018-10-16T09:42:30.783Z,55.20
2018-10-16T09:44:58.247Z,54.50
2018-10-16T09:47:25.765Z,54.40
2018-10-16T09:49:53.431Z,55.60
2018-10-16T09:52:20.883Z,55.70
2018-10-16T09:54:48.422Z,55.70
2018-10-16T09:57:15.937Z,55.90
2018-10-16T09:59:43.514Z,55.70
2018-10-16T10:02:10.995Z,55.50
2018-10-16T10:04:38.477Z,56.10
2018-10-16T10:07:06.028Z,56.70
2018-10-16T10:09:33.595Z,55.80
2018-10-16T10:12:01.387Z,55.40
2018-10-16T10:14:28.947Z,55.00
2018-10-16T10:16:56.455Z,54.30
2018-10-16T10:19:24.003Z,54.20
2018-10-16T10:21:51.477Z,53.30
2018-10-16T10:24:18.975Z,55.00
2018-10-16T10:26:47.227Z,54.30
2018-10-16T10:29:14.741Z,54.60
2018-10-16T10:31:42.288Z,53.80
2018-10-16T10:34:09.805Z,53.80
2018-10-16T10:36:37.344Z,53.00
2018-10-16T10:39:07.924Z,51.40
2018-10-16T10:41:35.585Z,51.60
2018-10-16T10:44:03.126Z,51.90
2018-10-16T10:46:30.706Z,50.10
2018-10-16T10:48:58.198Z,49.80
2018-10-16T10:51:26.099Z,49.00
2018-10-16T10:53:53.281Z,49.00
2018-10-16T10:56:20.870Z,50.20
2018-10-16T10:58:48.330Z,48.80
2018-10-16T11:01:15.873Z,48.30
2018-10-16T11:03:43.564Z,46.80
2018-10-16T11:06:11.050Z,47.80
2018-10-16T11:08:38.650Z,47.60
2018-10-16T11:11:06.126Z,46.70
2018-10-16T11:13:33.681Z,47.60
2018-10-16T11:16:01.350Z,46.70
2018-10-16T11:18:28.890Z,45.60
2018-10-16T11:20:56.483Z,46.40
2018-10-16T11:23:24.018Z,46.50
2018-10-16T11:25:51.498Z,46.50
2018-10-16T11:28:19.071Z,46.40
2018-10-16T11:30:46.553Z,46.00
2018-10-16T11:33:14.157Z,46.00
2018-10-16T11:35:41.568Z,44.00
2018-10-16T11:38:09.160Z,44.40
2018-10-16T11:40:36.779Z,44.30
2018-10-16T11:43:04.400Z,44.40
2018-10-16T11:45:32.005Z,43.70
2018-10-16T11:47:59.502Z,43.70
2018-10-16T11:50:27.118Z,44.70
2018-10-16T11:52:54.639Z,42.60
2018-10-16T11:55:22.232Z,44.50
2018-10-16T11:57:49.798Z,43.00
2018-10-16T12:00:17.889Z,43.90
2018-10-16T12:02:45.899Z,43.30
2018-10-16T12:05:13.534Z,41.30
2018-10-16T12:07:41.080Z,43.30
2018-10-16T12:10:08.681Z,41.70
2018-10-16T12:12:36.309Z,42.30
2018-10-16T12:15:04.106Z,43.20
2018-10-16T12:17:39.730Z,43.20
2018-10-16T12:20:10.794Z,42.50
2018-10-16T12:22:38.342Z,43.80
2018-10-16T12:25:06.471Z,41.70
2018-10-16T12:27:33.980Z,42.70
2018-10-16T12:30:01.471Z,42.40
2018-10-16T12:32:29.091Z,41.10
2018-10-16T12:34:56.590Z,42.50
2018-10-16T12:37:24.137Z,42.00
2018-10-16T12:39:51.638Z,42.30
2018-10-16T12:44:46.818Z,41.40
2018-10-16T12:47:14.482Z,40.80
2018-10-16T12:49:41.979Z,41.40
2018-10-16T12:52:09.463Z,40.90
2018-10-16T12:54:37.014Z,40.30
2018-10-16T12:59:32.117Z,40.60
2018-10-16T13:01:59.634Z,40.80
2018-10-16T13:04:27.250Z,40.60
2018-10-16T13:06:54.766Z,40.70
2018-10-16T13:09:22.371Z,41.50
2018-10-16T13:11:49.994Z,41.00
2018-10-16T13:14:17.678Z,40.70
2018-10-16T13:16:45.179Z,39.50
2018-10-16T13:19:12.780Z,40.90
2018-10-16T13:21:40.286Z,38.90
2018-10-16T13:24:07.891Z,39.80
2018-10-16T13:26:35.351Z,39.00
2018-10-16T13:29:02.952Z,40.10
2018-10-16T13:31:30.447Z,39.50
2018-10-16T13:33:58.059Z,40.20
2018-10-16T13:36:25.536Z,40.80
2018-10-16T13:38:53.047Z,40.40
2018-10-16T13:41:20.714Z,40.50
2018-10-16T13:43:48.202Z,41.10
2018-10-16T13:46:15.871Z,39.60
2018-10-16T13:48:43.343Z,39.10
2018-10-16T13:51:11.014Z,38.20
2018-10-16T13:53:38.570Z,39.60
2018-10-16T13:56:06.400Z,38.80
2018-10-16T13:58:33.875Z,39.50
2018-10-16T14:01:01.474Z,39.80
2018-10-16T14:03:29.024Z,38.00
2018-10-16T14:06:02.965Z,38.00
2018-10-16T14:08:30.618Z,38.40
2018-10-16T14:10:58.217Z,38.10
2018-10-16T14:13:25.747Z,37.90
2018-10-16T14:15:53.292Z,39.20
2018-10-16T14:18:20.875Z,38.50
2018-10-16T14:20:48.408Z,38.00
2018-10-16T14:23:15.986Z,38.40
2018-10-16T14:25:43.549Z,38.00
2018-10-16T14:28:11.111Z,38.00
2018-10-16T14:30:38.621Z,37.00
2018-10-16T14:33:09.510Z,37.70
2018-10-16T14:35:37.137Z,37.70
2018-10-16T14:38:05.104Z,38.70
2018-10-16T14:40:32.679Z,38.00
2018-10-16T14:43:00.171Z,36.30
2018-10-16T14:47:55.311Z,36.90
2018-10-16T14:50:22.805Z,37.20
2018-10-16T14:52:50.397Z,37.90
2018-10-16T14:55:17.979Z,37.30
2018-10-16T14:57:45.539Z,36.90
2018-10-16T15:00:13.253Z,37.80
2018-10-16T15:02:40.817Z,37.60
2018-10-16T15:05:09.422Z,37.80
2018-10-16T15:07:37.060Z,37.40
2018-10-16T15:10:05.795Z,37.80
2018-10-16T15:12:33.354Z,37.50
2018-10-16T15:15:01.926Z,38.10
2018-10-16T15:17:30.087Z,37.70
2018-10-16T15:19:57.906Z,37.90
2018-10-16T15:22:25.509Z,37.70
2018-10-16T15:24:53.169Z,38.80
2018-10-16T15:27:21.088Z,39.50
2018-10-16T15:29:48.779Z,39.10
2018-10-16T15:32:16.600Z,39.10
2018-10-16T15:34:44.534Z,39.70
2018-10-16T15:37:12.111Z,40.20
2018-10-16T15:39:39.603Z,40.80
2018-10-16T15:42:07.331Z,41.20
2018-10-16T15:44:34.744Z,40.50
2018-10-16T15:47:02.752Z,40.60
2018-10-16T15:49:30.260Z,41.80
2018-10-16T15:51:57.960Z,42.20
2018-10-16T15:54:25.409Z,42.50
2018-10-16T15:56:53.038Z,42.20
2018-10-16T15:59:20.631Z,42.50
2018-10-16T16:01:48.128Z,43.20
2018-10-16T16:04:15.754Z,43.80
2018-10-16T16:06:43.301Z,44.40
2018-10-16T16:09:10.910Z,44.50
2018-10-16T16:11:38.476Z,44.60
2018-10-16T16:14:06.184Z,44.80
2018-10-16T16:16:33.745Z,45.00
2018-10-16T16:19:01.499Z,44.60
2018-10-16T16:21:29.040Z,44.60
2018-10-16T16:23:56.614Z,44.80
2018-10-16T16:26:24.298Z,45.10
2018-10-16T16:31:19.344Z,44.70
2018-10-16T16:33:46.840Z,45.60
2018-10-16T16:36:14.482Z,45.60
2018-10-16T16:38:41.913Z,45.90
2018-10-16T16:41:09.626Z,46.10
2018-10-16T16:43:37.207Z,46.70
2018-10-16T16:46:05.499Z,47.10
2018-10-16T16:48:33.048Z,47.00
2018-10-16T16:51:01.030Z,47.30
2018-10-16T16:53:28.555Z,47.90
2018-10-16T16:55:56.248Z,48.00
2018-10-16T16:58:23.718Z,48.10
2018-10-16T17:00:51.278Z,48.50
2018-10-16T17:03:18.799Z,48.40
2018-10-16T17:05:46.406Z,48.90
2018-10-16T17:08:14.030Z,49.00
2018-10-16T17:10:41.507Z,48.90
2018-10-16T17:13:09.029Z,49.00
2018-10-16T17:15:36.768Z,49.60
2018-10-16T17:18:04.520Z,49.60
2018-10-16T17:20:32.061Z,49.30
2018-10-16T17:22:59.694Z,49.80
2018-10-16T17:25:27.498Z,50.10
2018-10-16T17:27:54.824Z,50.00
2018-10-16T17:30:22.327Z,50.20
2018-10-16T17:32:49.935Z,50.10
2018-10-16T17:35:17.522Z,50.30
2018-10-16T17:37:45.170Z,50.70
2018-10-16T17:40:13.954Z,50.70
2018-10-16T17:42:41.854Z,50.80
2018-10-16T17:45:10.978Z,51.10
2018-10-16T17:47:38.564Z,51.20
2018-10-16T17:50:09.635Z,51.50
2018-10-16T17:52:37.167Z,51.80
2018-10-16T17:55:05.536Z,52.10
2018-10-16T17:57:33.188Z,52.40
2018-10-16T18:00:00.935Z,52.50
2018-10-16T18:02:28.446Z,52.40
2018-10-16T18:04:56.146Z,52.60
2018-10-16T18:07:24.323Z,52.80
2018-10-16T18:09:51.902Z,52.80
2018-10-16T18:12:19.503Z,53.00
2018-10-16T18:14:47.121Z,53.00
2018-10-16T18:17:14.676Z,53.30
2018-10-16T18:19:42.258Z,53.40
2018-10-16T18:22:09.803Z,53.40
2018-10-16T18:24:37.470Z,53.90
2018-10-16T18:27:05.089Z,53.90
2018-10-16T18:29:32.710Z,53.80
2018-10-16T18:32:00.258Z,54.20
2018-10-16T18:34:27.810Z,54.60
2018-10-16T18:36:55.427Z,54.60
2018-10-16T18:39:23.018Z,55.20
2018-10-16T18:41:50.679Z,54.90
2018-10-16T18:44:18.213Z,54.80
2018-10-16T18:46:45.851Z,54.90
2018-10-16T18:49:13.418Z,55.00
2018-10-16T18:51:41.112Z,55.00
2018-10-16T18:54:08.650Z,55.50
2018-10-16T18:56:36.280Z,55.60
2018-10-16T18:59:03.958Z,55.60
2018-10-16T19:01:31.707Z,55.80
2018-10-16T19:03:59.290Z,56.00
2018-10-16T19:06:26.890Z,56.60
2018-10-16T19:08:54.459Z,56.90
2018-10-16T19:11:22.022Z,57.00
2018-10-16T19:13:49.600Z,57.50
2018-10-16T19:16:17.195Z,57.30
2018-10-16T19:18:44.761Z,57.40
2018-10-16T19:21:12.469Z,57.00
2018-10-16T19:23:39.943Z,57.40
2018-10-16T19:26:07.471Z,57.00
2018-10-16T19:28:35.143Z,57.20
2018-10-16T19:31:02.746Z,57.10
2018-10-16T19:33:30.399Z,56.90
2018-10-16T19:35:57.942Z,57.50
2018-10-16T19:38:25.529Z,57.70
2018-10-16T19:40:53.086Z,58.30
2018-10-16T19:43:20.611Z,58.30
2018-10-16T19:45:48.246Z,58.20
2018-10-16T19:48:15.758Z,58.20
2018-10-16T19:50:43.908Z,58.60
2018-10-16T19:53:11.426Z,59.00
2018-10-16T19:55:39.092Z,59.10
2018-10-16T19:58:06.724Z,59.10
2018-10-16T20:00:34.352Z,59.00
2018-10-16T20:03:02.126Z,58.70
2018-10-16T20:05:29.642Z,58.70
2018-10-16T20:07:57.142Z,58.70
2018-10-16T20:10:24.782Z,58.80
2018-10-16T20:12:52.298Z,58.90
2018-10-16T20:15:19.936Z,58.90
2018-10-16T20:17:47.441Z,59.40
2018-10-16T20:20:15.088Z,59.50
2018-10-16T20:22:42.691Z,59.30
2018-10-16T20:25:10.980Z,59.30
2018-10-16T20:27:38.633Z,59.30
2018-10-16T20:30:07.280Z,59.60
2018-10-16T20:32:35.127Z,59.80
2018-10-16T20:35:02.893Z,60.20
2018-10-16T20:37:30.456Z,61.40
2018-10-16T20:39:57.998Z,61.40
2018-10-16T20:42:25.719Z,60.80
2018-10-16T20:44:53.208Z,60.50
2018-10-16T20:47:20.870Z,61.00
2018-10-16T20:49:48.410Z,60.20
2018-10-16T20:55:05.947Z,60.70
2018-10-16T20:57:33.674Z,62.10
2018-10-16T21:00:01.973Z,62.10
2018-10-16T21:02:29.579Z,62.60
2018-10-16T21:04:57.241Z,62.20
2018-10-16T21:07:24.605Z,61.50
2018-10-16T21:09:52.161Z,61.40
2018-10-16T21:12:19.714Z,61.30
2018-10-16T21:14:47.306Z,61.00
2018-10-16T21:17:14.782Z,61.10
2018-10-16T21:19:42.363Z,61.50
2018-10-16T21:22:09.846Z,61.60
2018-10-16T21:24:37.355Z,61.40
2018-10-16T21:27:08.582Z,61.00
2018-10-16T21:29:36.195Z,61.10
2018-10-16T21:32:04.044Z,61.40
2018-10-16T21:34:31.689Z,61.70
2018-10-16T21:36:59.295Z,61.50
2018-10-16T21:39:26.938Z,61.70
2018-10-16T21:41:54.650Z,61.90
2018-10-16T21:44:22.641Z,61.90
2018-10-16T21:46:50.992Z,62.10
2018-10-16T21:49:18.522Z,62.50
2018-10-16T21:51:46.089Z,62.30
2018-10-16T21:54:13.574Z,62.60
2018-10-16T21:56:41.181Z,62.60
2018-10-16T21:59:09.809Z,62.60
2018-10-16T22:01:42.909Z,63.40
2018-10-16T22:04:10.397Z,63.80
2018-10-16T22:06:38.102Z,64.30
2018-10-16T22:09:13.391Z,64.60
2018-10-16T22:11:40.994Z,64.00
2018-10-16T22:14:09.332Z,63.80
2018-10-16T22:16:37.640Z,63.80
2018-10-16T22:19:05.514Z,63.80
2018-10-16T22:21:33.026Z,63.60
2018-10-16T22:24:00.782Z,63.80
2018-10-16T22:26:28.394Z,63.30
2018-10-16T22:28:55.945Z,64.50
2018-10-16T22:31:23.397Z,64.90
2018-10-16T22:33:50.958Z,65.70
2018-10-16T22:36:18.461Z,65.40
2018-10-16T22:38:46.024Z,65.00
2018-10-16T22:41:13.731Z,65.90
2018-10-16T22:43:41.210Z,66.00
2018-10-16T22:46:08.728Z,66.10
2018-10-16T22:48:36.269Z,65.80
2018-10-16T22:51:03.969Z,65.40
2018-10-16T22:53:31.533Z,65.20
2018-10-16T22:55:59.011Z,65.10
2018-10-16T22:58:27.524Z,65.80
2018-10-16T23:00:55.088Z,65.60
2018-10-16T23:03:22.586Z,65.40
2018-10-16T23:05:50.079Z,65.00
2018-10-16T23:08:17.717Z,65.60
2018-10-16T23:10:45.196Z,66.00
2018-10-16T23:13:12.796Z,66.10
2018-10-16T23:15:40.234Z,66.50
2018-10-16T23:18:07.824Z,65.40
2018-10-16T23:20:35.410Z,65.50
2018-10-16T23:23:02.916Z,65.80
2018-10-16T23:25:30.457Z,65.70
2018-10-16T23:27:57.921Z,66.30
2018-10-16T23:30:25.507Z,66.10
2018-10-16T23:32:52.978Z,66.80
2018-10-16T23:35:20.576Z,66.70
2018-10-16T23:37:48.037Z,66.30
2018-10-16T23:40:15.606Z,66.60
2018-10-16T23:42:43.189Z,67.20
2018-10-16T23:45:10.726Z,67.20
2018-10-16T23:47:38.200Z,66.90
2018-10-16T23:50:05.778Z,66.90
2018-10-16T23:52:33.234Z,66.70
2018-10-16T23:55:00.939Z,66.90
2018-10-16T23:57:28.338Z,67.60
2018-10-16T23:59:55.821Z,67.70
